createdAt,value
2023-05-16T00:00:49.382Z,34.15
2023-05-16T00:03:21.956Z,37.28
2023-05-16T00:05:51.134Z,31.33
2023-05-16T00:08:19.877Z,35.67
2023-05-16T00:10:52.740Z,34.30
2023-05-16T00:13:25.278Z,34.55
2023-05-16T00:15:55.889Z,40.90
2023-05-16T00:18:27.424Z,36.55
2023-05-16T00:20:56.911Z,39.72
2023-05-16T00:23:26.794Z,42.20
2023-05-16T00:25:57.235Z,44.47
2023-05-16T00:28:25.726Z,41.90
2023-05-16T00:30:54.573Z,41.78
2023-05-16T00:33:24.857Z,40.83
2023-05-16T00:35:54.092Z,50.90
2023-05-16T00:38:24.466Z,48.95
2023-05-16T00:40:52.982Z,41.55
2023-05-16T00:43:24.841Z,45.58
2023-05-16T00:45:54.176Z,46.63
2023-05-16T00:48:24.126Z,43.60
2023-05-16T00:50:54.130Z,47.05
2023-05-16T00:53:25.011Z,48.97
2023-05-16T00:55:53.666Z,45.47
2023-05-16T00:58:24.566Z,46.10
2023-05-16T01:00:53.392Z,46.78
2023-05-16T01:03:22.568Z,47.47
2023-05-16T01:05:52.859Z,51.15
2023-05-16T01:08:21.878Z,45.53
2023-05-16T01:11:05.064Z,44.95
2023-05-16T01:13:45.645Z,47.78
2023-05-16T01:16:23.373Z,49.90
2023-05-16T01:19:02.634Z,53.08
2023-05-16T01:21:46.041Z,42.88
2023-05-16T01:24:26.483Z,47.65
2023-05-16T01:26:58.420Z,52.40
2023-05-16T01:29:28.026Z,50.00
2023-05-16T01:31:58.605Z,48.22
2023-05-16T01:34:28.096Z,47.35
2023-05-16T01:37:05.952Z,45.88
2023-05-16T01:39:39.959Z,47.97
2023-05-16T01:42:14.214Z,41.33
2023-05-16T01:44:46.152Z,43.83
2023-05-16T01:47:18.481Z,46.75
2023-05-16T01:49:56.644Z,41.75
2023-05-16T01:52:36.717Z,40.97
2023-05-16T01:55:11.712Z,46.85
2023-05-16T02:00:13.304Z,43.50
2023-05-16T02:02:49.769Z,41.20
2023-05-16T02:05:21.352Z,42.65
2023-05-16T02:07:50.080Z,41.95
2023-05-16T02:10:19.734Z,45.20
2023-05-16T02:12:50.876Z,40.58
2023-05-16T02:15:22.829Z,43.28
2023-05-16T02:17:51.493Z,40.70
2023-05-16T02:20:20.016Z,44.85
2023-05-16T02:22:50.098Z,40.13
2023-05-16T02:25:20.865Z,43.22
2023-05-16T02:27:52.096Z,44.80
2023-05-16T02:33:21.931Z,39.40
2023-05-16T02:36:00.322Z,47.13
2023-05-16T02:38:36.291Z,39.45
2023-05-16T02:41:05.232Z,43.95
2023-05-16T02:43:36.996Z,48.58
2023-05-16T02:46:08.493Z,42.33
2023-05-16T02:48:41.345Z,47.15
2023-05-16T02:51:10.493Z,42.70
2023-05-16T02:53:40.841Z,39.45
2023-05-16T02:56:14.261Z,36.30
2023-05-16T02:58:52.160Z,42.90
2023-05-16T03:01:21.263Z,44.45
2023-05-16T03:03:51.410Z,43.88
2023-05-16T03:06:20.428Z,44.63
2023-05-16T03:08:50.836Z,51.13
2023-05-16T03:11:22.678Z,44.67
2023-05-16T03:13:54.998Z,43.22
2023-05-16T03:16:23.346Z,39.10
2023-05-16T03:19:08.348Z,40.22
2023-05-16T03:21:38.972Z,39.88
2023-05-16T03:24:24.614Z,38.05
2023-05-16T03:26:55.338Z,40.75
2023-05-16T03:29:27.386Z,43.70
2023-05-16T03:31:56.919Z,41.22
2023-05-16T03:34:31.154Z,43.90
2023-05-16T03:36:59.663Z,49.75
2023-05-16T03:39:45.264Z,42.92
2023-05-16T03:42:20.394Z,42.38
2023-05-16T03:45:06.776Z,46.85
2023-05-16T03:47:36.480Z,47.00
2023-05-16T03:50:07.884Z,43.63
2023-05-16T03:52:38.767Z,48.28
2023-05-16T03:55:10.071Z,45.85
2023-05-16T03:57:42.306Z,43.70
2023-05-16T04:00:20.055Z,42.13
2023-05-16T04:02:57.828Z,41.72
2023-05-16T04:05:28.659Z,43.67
2023-05-16T04:07:58.447Z,39.95
2023-05-16T04:13:33.364Z,43.93
2023-05-16T04:16:07.151Z,45.00
2023-05-16T04:18:37.957Z,38.30
2023-05-16T04:21:14.082Z,37.92
2023-05-16T04:23:46.796Z,36.78
2023-05-16T04:26:18.025Z,34.97
2023-05-16T04:29:11.015Z,37.58
2023-05-16T04:31:41.319Z,33.40
2023-05-16T04:34:18.161Z,29.60
2023-05-16T04:36:50.158Z,30.77
2023-05-16T04:39:20.802Z,30.25
2023-05-16T04:41:54.109Z,32.10
2023-05-16T04:44:28.717Z,30.10
2023-05-16T04:47:16.542Z,27.65
2023-05-16T04:52:35.494Z,27.77
2023-05-16T04:55:05.004Z,29.83
2023-05-16T05:03:14.658Z,32.25
2023-05-16T05:05:46.243Z,23.05
2023-05-16T05:08:17.555Z,27.30
2023-05-16T05:10:54.955Z,22.10
2023-05-16T05:13:26.015Z,21.92
2023-05-16T05:15:54.760Z,17.30
2023-05-16T05:18:24.680Z,19.38
2023-05-16T05:23:59.030Z,14.45
2023-05-16T05:26:31.252Z,12.88
2023-05-16T05:29:05.319Z,11.23
2023-05-16T05:31:54.412Z,9.65
2023-05-16T05:34:29.083Z,12.20
2023-05-16T05:37:01.243Z,9.75
2023-05-16T05:39:29.757Z,7.40
2023-05-16T05:45:21.741Z,8.43
2023-05-16T05:51:30.953Z,5.35
2023-05-16T05:54:25.846Z,8.50
2023-05-16T05:57:06.230Z,8.05
2023-05-16T05:59:49.073Z,7.93
2023-05-16T06:02:17.601Z,4.03
2023-05-16T06:04:46.582Z,4.45
2023-05-16T06:07:16.429Z,3.65
2023-05-16T06:09:46.534Z,2.30
2023-05-16T06:12:15.558Z,4.53
2023-05-16T06:14:44.343Z,4.93
2023-05-16T06:17:12.957Z,2.22
2023-05-16T06:19:41.152Z,3.25
2023-05-16T06:22:09.753Z,2.80
2023-05-16T06:24:37.897Z,3.28
2023-05-16T06:27:07.930Z,4.47
2023-05-16T06:29:37.012Z,2.70
2023-05-16T06:32:05.717Z,3.80
2023-05-16T06:34:34.027Z,3.92
2023-05-16T06:37:04.176Z,2.72
2023-05-16T06:39:32.740Z,3.10
2023-05-16T06:42:01.002Z,3.78
2023-05-16T06:44:35.346Z,1.65
2023-05-16T06:47:04.150Z,2.40
2023-05-16T06:49:32.683Z,1.30
2023-05-16T06:52:01.166Z,1.05
2023-05-16T06:54:29.421Z,2.15
2023-05-16T06:56:57.904Z,2.10
2023-05-16T06:59:29.256Z,6.47
2023-05-16T07:02:00.845Z,2.72
2023-05-16T07:04:29.649Z,0.82
2023-05-16T07:06:58.133Z,1.10
2023-05-16T07:09:26.460Z,1.10
2023-05-16T07:11:59.269Z,4.05
2023-05-16T07:14:30.769Z,5.03
2023-05-16T07:17:00.788Z,2.40
2023-05-16T07:19:29.230Z,2.10
2023-05-16T07:21:57.947Z,1.48
2023-05-16T07:24:26.395Z,1.20
2023-05-16T07:26:55.787Z,2.60
2023-05-16T07:29:24.578Z,1.98
2023-05-16T07:31:53.175Z,5.30
2023-05-16T07:34:24.039Z,1.13
2023-05-16T07:36:53.040Z,5.28
2023-05-16T07:39:21.569Z,3.97
2023-05-16T07:41:50.600Z,1.10
2023-05-16T07:44:19.078Z,1.00
2023-05-16T07:46:47.973Z,0.85
2023-05-16T07:49:16.668Z,0.70
2023-05-16T07:51:49.440Z,1.70
2023-05-16T07:54:18.138Z,0.90
2023-05-16T07:56:47.614Z,0.80
2023-05-16T07:59:16.940Z,0.98
2023-05-16T08:01:45.709Z,3.30
2023-05-16T08:04:14.927Z,0.40
2023-05-16T08:06:44.248Z,0.60
2023-05-16T08:09:14.414Z,1.73
2023-05-16T08:11:45.278Z,1.20
2023-05-16T08:14:13.740Z,8.80
2023-05-16T08:16:43.830Z,0.90
2023-05-16T08:19:13.376Z,2.78
2023-05-16T08:21:42.159Z,1.75
2023-05-16T08:24:11.394Z,1.33
2023-05-16T08:26:44.618Z,0.90
2023-05-16T08:29:13.232Z,0.35
2023-05-16T08:31:42.201Z,1.20
2023-05-16T08:34:10.936Z,1.85
2023-05-16T08:36:39.337Z,1.30
2023-05-16T08:39:11.659Z,0.60
2023-05-16T08:41:41.951Z,1.30
2023-05-16T08:44:12.568Z,3.10
2023-05-16T08:46:44.285Z,0.95
2023-05-16T08:49:13.611Z,0.65
2023-05-16T08:51:42.629Z,0.93
2023-05-16T08:54:16.694Z,0.50
2023-05-16T08:56:48.852Z,0.40
2023-05-16T08:59:17.453Z,0.30
2023-05-16T09:01:46.058Z,0.50
2023-05-16T09:04:15.218Z,2.05
2023-05-16T09:06:44.098Z,0.65
2023-05-16T09:09:13.484Z,1.48
2023-05-16T09:11:43.661Z,1.58
2023-05-16T09:14:14.369Z,0.82
2023-05-16T09:16:44.265Z,0.95
2023-05-16T09:19:15.516Z,3.78
2023-05-16T09:21:44.668Z,1.00
2023-05-16T09:24:13.382Z,0.80
2023-05-16T09:26:41.845Z,1.45
2023-05-16T09:29:15.762Z,1.25
2023-05-16T09:31:44.826Z,2.65
2023-05-16T09:34:13.488Z,3.75
2023-05-16T09:36:44.030Z,1.45
2023-05-16T09:39:16.890Z,3.38
2023-05-16T09:41:46.360Z,1.08
2023-05-16T09:44:19.705Z,2.45
2023-05-16T09:46:48.164Z,1.45
2023-05-16T09:49:17.390Z,0.70
2023-05-16T09:51:46.150Z,2.00
2023-05-16T09:54:14.797Z,1.75
2023-05-16T09:56:55.765Z,2.33
2023-05-16T09:59:25.885Z,1.60
2023-05-16T10:01:57.753Z,3.38
2023-05-16T10:04:26.751Z,5.30
2023-05-16T10:06:57.827Z,1.98
2023-05-16T10:09:27.049Z,1.83
2023-05-16T10:11:57.355Z,2.45
2023-05-16T10:14:28.452Z,1.63
2023-05-16T10:16:59.381Z,2.10
2023-05-16T10:19:27.824Z,2.00
2023-05-16T10:22:01.184Z,1.67
2023-05-16T10:24:35.850Z,2.08
2023-05-16T10:27:06.456Z,3.15
2023-05-16T10:29:52.978Z,2.97
2023-05-16T10:32:25.974Z,1.02
2023-05-16T10:34:57.144Z,1.35
2023-05-16T10:37:26.532Z,3.63
2023-05-16T10:39:55.405Z,3.47
2023-05-16T10:42:23.912Z,2.50
2023-05-16T10:45:04.826Z,2.75
2023-05-16T10:47:36.135Z,1.30
2023-05-16T10:50:04.812Z,1.33
2023-05-16T10:52:35.704Z,3.13
2023-05-16T10:55:06.083Z,6.28
2023-05-16T10:57:39.474Z,6.88
2023-05-16T11:00:23.912Z,5.20
2023-05-16T11:02:52.794Z,5.25
2023-05-16T11:05:22.286Z,5.25
2023-05-16T11:08:05.793Z,6.93
2023-05-16T11:10:34.391Z,4.70
2023-05-16T11:13:11.625Z,5.28
2023-05-16T11:15:42.432Z,7.45
2023-05-16T11:18:16.493Z,7.30
2023-05-16T11:20:45.301Z,5.82
2023-05-16T11:23:23.527Z,5.53
2023-05-16T11:25:57.519Z,7.60
2023-05-16T11:28:28.048Z,7.18
2023-05-16T11:31:01.032Z,7.18
2023-05-16T11:33:35.498Z,5.68
2023-05-16T11:36:15.722Z,5.90
2023-05-16T11:38:44.933Z,5.80
2023-05-16T11:41:15.710Z,10.60
2023-05-16T11:43:46.332Z,10.52
2023-05-16T11:46:17.498Z,5.00
2023-05-16T11:48:48.127Z,6.18
2023-05-16T11:51:20.963Z,7.78
2023-05-16T11:53:51.284Z,4.78
2023-05-16T11:56:22.268Z,4.50
2023-05-16T11:58:51.262Z,5.70
2023-05-16T12:01:21.385Z,6.65
2023-05-16T12:03:57.579Z,5.65
2023-05-16T12:06:26.423Z,7.63
2023-05-16T12:08:58.254Z,8.20
2023-05-16T12:11:27.325Z,3.33
2023-05-16T12:13:56.345Z,6.57
2023-05-16T12:16:26.987Z,4.50
2023-05-16T12:18:56.367Z,6.65
2023-05-16T12:21:26.806Z,8.60
2023-05-16T12:23:58.373Z,4.88
2023-05-16T12:26:33.422Z,6.82
2023-05-16T12:29:03.645Z,5.93
2023-05-16T12:31:41.729Z,5.82
2023-05-16T12:34:20.581Z,5.57
2023-05-16T12:36:54.612Z,9.07
2023-05-16T12:39:24.121Z,7.82
2023-05-16T12:41:55.129Z,7.32
2023-05-16T12:44:25.388Z,7.75
2023-05-16T12:46:58.116Z,5.88
2023-05-16T12:49:29.902Z,5.22
2023-05-16T12:52:06.097Z,5.53
2023-05-16T12:54:34.653Z,4.65
2023-05-16T12:57:04.654Z,3.42
2023-05-16T12:59:37.046Z,5.85
2023-05-16T13:02:08.880Z,5.22
2023-05-16T13:04:37.361Z,5.07
2023-05-16T13:07:06.912Z,5.28
2023-05-16T13:09:35.856Z,6.55
2023-05-16T13:12:04.896Z,3.20
2023-05-16T13:14:34.760Z,4.68
2023-05-16T13:17:04.554Z,4.45
2023-05-16T13:19:35.041Z,3.75
2023-05-16T13:22:04.256Z,5.57
2023-05-16T13:24:34.491Z,6.63
2023-05-16T13:27:02.860Z,10.93
2023-05-16T13:29:31.460Z,3.70
2023-05-16T13:32:00.490Z,3.65
2023-05-16T13:34:29.764Z,3.38
2023-05-16T13:37:00.011Z,6.25
2023-05-16T13:39:28.887Z,4.97
2023-05-16T13:42:00.078Z,5.78
2023-05-16T13:44:31.216Z,4.68
2023-05-16T13:47:00.081Z,6.03
2023-05-16T13:49:29.440Z,7.30
2023-05-16T13:52:01.654Z,3.33
2023-05-16T13:54:30.721Z,3.30
2023-05-16T13:56:58.955Z,3.83
2023-05-16T13:59:52.580Z,3.53
2023-05-16T14:02:17.652Z,4.93
2023-05-16T14:04:49.100Z,4.20
2023-05-16T14:07:20.891Z,3.90
2023-05-16T14:09:49.728Z,3.33
2023-05-16T14:12:18.711Z,3.97
2023-05-16T14:14:49.744Z,3.17
2023-05-16T14:17:18.883Z,6.00
2023-05-16T14:19:48.128Z,4.18
2023-05-16T14:22:16.731Z,6.28
2023-05-16T14:24:49.932Z,7.97
2023-05-16T14:27:18.701Z,4.28
2023-05-16T14:29:49.105Z,4.45
2023-05-16T14:32:18.085Z,3.42
2023-05-16T14:34:47.994Z,3.42
2023-05-16T14:37:18.596Z,5.20
2023-05-16T14:39:50.776Z,6.55
2023-05-16T14:42:21.642Z,2.67
2023-05-16T14:44:50.288Z,4.90
2023-05-16T14:47:19.215Z,3.97
2023-05-16T14:49:50.008Z,5.05
2023-05-16T14:52:20.845Z,2.92
2023-05-16T14:54:52.281Z,10.27
2023-05-16T14:57:20.855Z,5.93
2023-05-16T14:59:50.919Z,5.35
2023-05-16T15:02:22.661Z,2.55
2023-05-16T15:04:52.329Z,5.32
2023-05-16T15:07:21.392Z,4.43
2023-05-16T15:09:52.083Z,5.72
2023-05-16T15:12:21.414Z,8.65
2023-05-16T15:14:54.188Z,3.90
2023-05-16T15:17:23.304Z,6.50
2023-05-16T15:19:55.767Z,3.08
2023-05-16T15:22:24.371Z,5.18
2023-05-16T15:24:54.572Z,4.28
2023-05-16T15:27:24.472Z,3.00
2023-05-16T15:29:53.213Z,3.85
2023-05-16T15:32:22.574Z,4.50
2023-05-16T15:34:51.497Z,2.33
2023-05-16T15:37:20.453Z,8.23
2023-05-16T15:39:49.336Z,3.75
2023-05-16T15:42:20.216Z,6.35
2023-05-16T15:44:51.594Z,4.32
2023-05-16T15:47:23.224Z,4.88
2023-05-16T15:49:53.538Z,2.92
2023-05-16T15:52:22.985Z,6.28
2023-05-16T15:54:54.258Z,3.72
2023-05-16T15:57:25.544Z,6.18
2023-05-16T15:59:54.153Z,5.68
2023-05-16T16:02:23.179Z,5.13
2023-05-16T16:04:52.343Z,6.93
2023-05-16T16:07:21.536Z,4.53
2023-05-16T16:09:50.677Z,2.08
2023-05-16T16:12:22.830Z,4.22
2023-05-16T16:14:53.078Z,1.88
2023-05-16T16:17:21.803Z,3.70
2023-05-16T16:19:51.514Z,5.38
2023-05-16T16:22:21.694Z,6.13
2023-05-16T16:24:51.263Z,6.22
2023-05-16T16:27:21.416Z,4.13
2023-05-16T16:29:49.692Z,2.67
2023-05-16T16:32:21.783Z,2.05
2023-05-16T16:34:50.299Z,2.95
2023-05-16T16:37:23.702Z,6.43
2023-05-16T16:39:55.931Z,3.35
2023-05-16T16:42:25.613Z,3.90
2023-05-16T16:44:54.231Z,4.95
2023-05-16T16:47:25.707Z,2.60
2023-05-16T16:49:55.892Z,4.47
2023-05-16T16:52:26.326Z,5.90
2023-05-16T16:54:56.382Z,6.72
2023-05-16T16:57:27.620Z,3.10
2023-05-16T16:59:59.651Z,2.75
2023-05-16T17:02:32.283Z,7.80
2023-05-16T17:05:04.958Z,2.55
2023-05-16T17:07:33.717Z,3.60
2023-05-16T17:10:05.069Z,3.60
2023-05-16T17:12:35.003Z,9.15
2023-05-16T17:15:06.698Z,8.98
2023-05-16T17:17:38.783Z,2.40
2023-05-16T17:20:10.639Z,9.10
2023-05-16T17:22:42.938Z,14.77
2023-05-16T17:25:11.813Z,3.55
2023-05-16T17:27:40.798Z,4.82
2023-05-16T17:30:14.418Z,2.53
2023-05-16T17:32:47.022Z,2.60
2023-05-16T17:35:16.406Z,3.72
2023-05-16T17:37:44.621Z,1.58
2023-05-16T17:40:17.419Z,5.15
2023-05-16T17:42:51.389Z,5.97
2023-05-16T17:45:20.657Z,2.92
2023-05-16T17:47:56.073Z,3.35
2023-05-16T17:50:24.857Z,1.65
2023-05-16T17:52:56.202Z,5.03
2023-05-16T17:55:26.449Z,3.45
2023-05-16T17:57:55.606Z,2.75
2023-05-16T18:00:26.830Z,2.97
2023-05-16T18:02:58.867Z,3.65
2023-05-16T18:05:31.412Z,4.30
2023-05-16T18:08:05.874Z,3.42
2023-05-16T18:10:50.279Z,3.22
2023-05-16T18:13:23.447Z,4.00
2023-05-16T18:15:55.412Z,3.42
2023-05-16T18:18:30.223Z,3.17
2023-05-16T18:21:00.069Z,4.40
2023-05-16T18:23:29.820Z,2.85
2023-05-16T18:26:00.893Z,5.60
2023-05-16T18:28:31.409Z,4.88
2023-05-16T18:31:01.634Z,5.20
2023-05-16T18:33:33.695Z,2.60
2023-05-16T18:36:05.584Z,4.68
2023-05-16T18:38:34.639Z,8.20
2023-05-16T18:41:08.605Z,4.50
2023-05-16T18:43:37.484Z,3.75
2023-05-16T18:46:07.196Z,4.55
2023-05-16T18:48:38.223Z,5.18
2023-05-16T18:51:07.168Z,3.17
2023-05-16T18:53:36.293Z,2.60
2023-05-16T18:56:05.517Z,3.30
2023-05-16T18:58:39.158Z,4.85
2023-05-16T19:01:09.712Z,4.82
2023-05-16T19:03:39.848Z,4.13
2023-05-16T19:06:09.831Z,2.70
2023-05-16T19:08:47.689Z,2.45
2023-05-16T19:11:19.275Z,4.22
2023-05-16T19:13:48.072Z,6.68
2023-05-16T19:16:17.721Z,3.75
2023-05-16T19:18:49.172Z,2.47
2023-05-16T19:21:18.074Z,3.33
2023-05-16T19:23:47.686Z,4.30
2023-05-16T19:26:18.264Z,3.92
2023-05-16T19:28:47.241Z,5.25
2023-05-16T19:31:16.384Z,3.63
2023-05-16T19:33:45.147Z,5.90
2023-05-16T19:36:27.370Z,6.80
2023-05-16T19:38:56.252Z,5.43
2023-05-16T19:44:14.266Z,2.67
2023-05-16T19:46:47.620Z,5.55
2023-05-16T19:49:19.537Z,4.45
2023-05-16T19:51:50.027Z,6.15
2023-05-16T19:54:18.668Z,3.38
2023-05-16T19:56:47.081Z,3.97
2023-05-16T19:59:18.351Z,3.80
2023-05-16T20:01:46.797Z,9.88
2023-05-16T20:04:19.149Z,3.53
2023-05-16T20:06:50.020Z,6.60
2023-05-16T20:09:20.716Z,7.40
2023-05-16T20:11:53.479Z,4.57
2023-05-16T20:14:27.809Z,5.30
2023-05-16T20:17:00.577Z,2.85
2023-05-16T20:19:32.794Z,7.68
2023-05-16T20:22:02.764Z,4.38
2023-05-16T20:24:34.691Z,6.30
2023-05-16T20:27:06.889Z,7.15
2023-05-16T20:29:35.791Z,6.28
2023-05-16T20:32:04.789Z,5.38
2023-05-16T20:34:34.630Z,4.15
2023-05-16T20:37:05.058Z,3.95
2023-05-16T20:39:35.393Z,7.20
2023-05-16T20:42:05.850Z,6.10
2023-05-16T20:44:35.510Z,3.33
2023-05-16T20:47:07.003Z,3.40
2023-05-16T20:49:39.215Z,6.63
2023-05-16T20:52:10.882Z,6.35
2023-05-16T20:54:41.080Z,5.90
2023-05-16T20:57:11.063Z,3.58
2023-05-16T20:59:42.962Z,4.47
2023-05-16T21:02:14.094Z,4.60
2023-05-16T21:04:42.445Z,4.53
2023-05-16T21:07:14.343Z,5.28
2023-05-16T21:09:42.900Z,3.75
2023-05-16T21:12:12.679Z,5.15
2023-05-16T21:14:44.130Z,5.50
2023-05-16T21:17:14.986Z,7.32
2023-05-16T21:19:45.335Z,11.95
2023-05-16T21:22:18.436Z,5.70
2023-05-16T21:24:47.185Z,3.97
2023-05-16T21:27:17.810Z,10.57
2023-05-16T21:29:49.767Z,4.20
2023-05-16T21:32:18.680Z,3.88
2023-05-16T21:34:50.411Z,4.47
2023-05-16T21:37:21.627Z,6.88
2023-05-16T21:39:51.724Z,4.00
2023-05-16T21:42:26.868Z,8.20
2023-05-16T21:44:57.260Z,8.32
2023-05-16T21:50:23.567Z,5.30
2023-05-16T21:53:03.906Z,8.48
2023-05-16T21:55:32.450Z,3.40
2023-05-16T21:58:01.205Z,6.40
2023-05-16T22:00:31.064Z,3.85
2023-05-16T22:03:00.564Z,5.72
2023-05-16T22:05:44.380Z,6.80
2023-05-16T22:08:24.779Z,8.02
2023-05-16T22:10:59.956Z,8.00
2023-05-16T22:13:34.027Z,8.05
2023-05-16T22:16:07.509Z,4.50
2023-05-16T22:18:37.156Z,6.90
2023-05-16T22:21:07.854Z,9.93
2023-05-16T22:23:40.081Z,6.15
2023-05-16T22:26:09.072Z,7.45
2023-05-16T22:28:37.477Z,8.13
2023-05-16T22:31:07.282Z,7.72
2023-05-16T22:33:35.955Z,5.65
2023-05-16T22:36:05.492Z,5.07
2023-05-16T22:38:34.792Z,5.57
2023-05-16T22:41:06.430Z,9.10
2023-05-16T22:43:35.052Z,9.48
2023-05-16T22:46:04.478Z,5.05
2023-05-16T22:48:35.106Z,7.70
2023-05-16T22:51:05.073Z,5.63
2023-05-16T22:53:35.762Z,6.53
2023-05-16T22:56:06.106Z,6.28
2023-05-16T22:58:34.467Z,6.35
2023-05-16T23:01:05.229Z,5.93
2023-05-16T23:03:35.925Z,6.50
2023-05-16T23:06:04.522Z,5.88
2023-05-16T23:08:34.997Z,4.78
2023-05-16T23:11:05.040Z,4.45
2023-05-16T23:13:34.480Z,6.15
2023-05-16T23:16:03.169Z,5.45
2023-05-16T23:18:31.733Z,4.63
2023-05-16T23:21:00.616Z,9.55
2023-05-16T23:23:29.213Z,6.43
2023-05-16T23:25:57.945Z,6.25
2023-05-16T23:28:30.893Z,3.90
2023-05-16T23:30:59.132Z,7.35
2023-05-16T23:33:28.870Z,8.32
2023-05-16T23:35:58.717Z,10.68
2023-05-16T23:38:28.802Z,3.63
2023-05-16T23:40:58.603Z,4.82
2023-05-16T23:43:30.263Z,5.05
2023-05-16T23:45:58.808Z,6.60
2023-05-16T23:48:27.317Z,11.88
2023-05-16T23:50:56.958Z,5.50
2023-05-16T23:53:29.136Z,5.70
2023-05-16T23:55:59.562Z,11.07
2023-05-16T23:58:29.856Z,10.38
